Anderson Regional Airport
KAND : now visible

Airfield :











YOU CAN JOIN US ON...

 
LOGIN :

Register | Disclaimer

   EN    FR    IT 

 









Legend :    VFR   Marginal VFR   IFR   Intensive IFR   Very Intensive IFR
Visi :
Ceiling :
>= 8 km
>= 3000ft
5 to 8 km
1000 to 3000 ft
1500m to 5 km
500 to 1000 ft
800 to 1500m
200 to 500 ft
< 800m
< 200 ft
Symbols :   Thunderstorms  Fog  Heavy snow  Heavy precipitations  Wind > 20 kt






- Airport Elevation : 782 ft


KAND - Anderson Regional

CURRENT METAR :
  • 161734Z AUTO 05007KT 2SM RA BR FEW010 BKN037 OVC048 22/21 A3011 RMK AO2 P0006 T02170206

EXPIRED METARs :
  • 161720Z AUTO 06008KT 2SM RA BR SCT010 BKN020 OVC034 22/21 A3011 RMK AO2 P0003 T02170206
  • 161707Z AUTO 07008KT 3SM RA BR BKN010 BKN020 OVC048 22/21 A3011 RMK AO2 P0001 T02170206
  • 161656Z AUTO 05007KT 4SM -RA BR SCT008 BKN033 OVC060 22/21 A3011 RMK AO2 SLP188 P0002 T02170211
  • 161651Z AUTO 06005KT 4SM -RA BR SCT008 BKN033 OVC060 22/21 A3011 RMK AO2 P0002
  • 161631Z AUTO 06007KT 6SM -RA BR BKN008 BKN031 OVC055 22/21 A3011 RMK AO2 P0001 T02170206
  • 161556Z AUTO 05007KT 6SM -RA BR SCT008 BKN038 OVC065 22/21 A3011 RMK AO2 SLP189 P0002 T02170206
  • 161525Z AUTO 06006KT 10SM -RA SCT008 SCT041 OVC060 22/21 A3011 RMK AO2 P0002 T02170206
  • 161456Z AUTO 06007KT 4SM -RA BR SCT026 OVC060 21/20 A3011 RMK AO2 RAB23 SLP188 P0000 60003 T02110200 53009

TAF KAND
Valid from the 16 at 18:00 until the 17 at 18:00 UTC


161730Z 1618/1718 06008KT 4SM -SHRA BR SCT007 OVC020
TEMPO 1618/1622 2SM SHRA BR BKN007 OVC020
FM170000 04005KT P6SM VCSH BKN035
FM170500 VRB02KT 3SM BR SCT007 BKN015
TEMPO 1708/1712 2SM BR OVC007
FM171400 07005KT P6SM BKN025
KZTL FIR / North America



MET'MAP, your aeronautical weather chart ! - Copyright ORBIFLY December 2007 - Disclaimer

ORBIFLY MET'MAP TEAM :

Programming & Development : Alexandra Zaïnal
Concept & original design : Baudouin d'Aumeries
Assistance for programming : Marc-Olivier Méhu
Technical & hardware support : Manuel Goepfert

Contact : metmap@orbifly.com




SOURCES & CREDITS :

   NOAA       Earth
Advisory